createdAt,value
2022-10-08T00:00:49.876Z,9.308963
2022-10-08T00:01:49.904Z,9.309031
2022-10-08T00:02:49.920Z,9.309073
2022-10-08T00:03:49.880Z,9.309086
2022-10-08T00:04:49.805Z,9.309117
2022-10-08T00:05:49.812Z,9.309071
2022-10-08T00:06:49.799Z,9.309152
2022-10-08T00:07:49.825Z,9.309117
2022-10-08T00:08:49.776Z,9.309093
2022-10-08T00:09:49.889Z,9.309049
2022-10-08T00:10:49.896Z,9.309087
2022-10-08T00:11:49.865Z,9.309005
2022-10-08T00:12:49.960Z,9.308982
2022-10-08T00:13:49.852Z,9.309091
2022-10-08T00:14:49.870Z,9.309143
2022-10-08T00:15:49.895Z,9.309118
2022-10-08T00:16:49.876Z,9.309038
2022-10-08T00:17:49.828Z,9.309093
2022-10-08T00:18:49.889Z,9.309035
2022-10-08T00:19:49.746Z,9.309086
2022-10-08T00:20:49.727Z,9.309145
2022-10-08T00:21:49.703Z,9.309069
2022-10-08T00:22:49.971Z,9.309057
2022-10-08T00:23:49.722Z,9.309023
2022-10-08T00:24:49.672Z,9.309040
2022-10-08T00:25:49.689Z,9.309018
2022-10-08T00:26:49.675Z,9.309006
2022-10-08T00:27:49.646Z,9.309087
2022-10-08T00:28:50.055Z,9.309031
2022-10-08T00:29:49.759Z,9.308971
2022-10-08T00:30:49.779Z,9.309018
2022-10-08T00:31:49.788Z,9.309013
2022-10-08T00:32:50.017Z,9.309069
2022-10-08T00:33:49.686Z,9.309092
2022-10-08T00:34:49.754Z,9.308998
2022-10-08T00:35:49.719Z,9.308951
2022-10-08T00:36:49.663Z,9.308949
2022-10-08T00:37:49.692Z,9.308990
2022-10-08T00:38:49.653Z,9.308968
2022-10-08T00:39:49.769Z,9.308984
2022-10-08T00:40:49.675Z,9.309011
2022-10-08T00:41:49.576Z,9.309056
2022-10-08T00:42:49.925Z,9.309020
2022-10-08T00:43:49.753Z,9.309096
2022-10-08T00:44:49.560Z,9.309004
2022-10-08T00:45:49.685Z,9.309076
2022-10-08T00:46:49.602Z,9.309061
2022-10-08T00:47:49.628Z,9.309065
2022-10-08T00:48:49.652Z,9.309031
2022-10-08T00:49:49.649Z,9.309011
2022-10-08T00:50:49.641Z,9.309027
2022-10-08T00:51:49.598Z,9.308930
2022-10-08T00:52:49.974Z,9.308937
2022-10-08T00:53:49.594Z,9.308862
2022-10-08T00:54:49.557Z,9.308878
2022-10-08T00:55:49.525Z,9.309002
2022-10-08T00:56:49.511Z,9.309076
2022-10-08T00:57:49.435Z,9.308969
2022-10-08T00:58:49.464Z,9.309100
2022-10-08T00:59:49.453Z,9.309104
2022-10-08T01:00:49.563Z,9.309200
2022-10-08T01:01:49.600Z,9.309392
2022-10-08T01:02:49.931Z,9.309245
2022-10-08T01:03:49.512Z,9.309232
2022-10-08T01:04:49.549Z,9.309157
2022-10-08T01:05:49.486Z,9.309050
2022-10-08T01:06:49.559Z,9.309085
2022-10-08T01:07:49.524Z,9.309136
2022-10-08T01:08:49.440Z,9.308957
2022-10-08T01:09:49.420Z,9.309005
2022-10-08T01:10:49.433Z,9.309089
2022-10-08T01:11:49.347Z,9.309159
2022-10-08T01:12:49.680Z,9.308971
2022-10-08T01:13:49.337Z,9.309177
2022-10-08T01:14:49.332Z,9.309110
2022-10-08T01:15:49.319Z,9.309117
2022-10-08T01:16:49.321Z,9.309005
2022-10-08T01:17:49.298Z,9.309122
2022-10-08T01:18:49.324Z,9.309134
2022-10-08T01:19:49.301Z,9.309289
2022-10-08T01:20:49.427Z,9.309119
2022-10-08T01:21:49.377Z,9.309157
2022-10-08T01:22:49.536Z,9.309212
2022-10-08T01:23:49.436Z,9.309381
2022-10-08T01:24:49.371Z,9.309679
2022-10-08T01:25:49.382Z,9.309565
2022-10-08T01:26:49.365Z,9.309332
2022-10-08T01:27:49.429Z,9.309126
2022-10-08T01:28:49.302Z,9.309199
2022-10-08T01:29:49.542Z,9.309390
2022-10-08T01:30:49.338Z,9.309355
2022-10-08T01:31:49.276Z,9.309624
2022-10-08T01:33:00.778Z,9.309128
2022-10-08T01:33:49.217Z,9.309234
2022-10-08T01:34:49.326Z,9.309165
2022-10-08T01:35:49.210Z,9.309111
2022-10-08T01:36:49.195Z,9.309070
2022-10-08T01:37:49.257Z,9.309185
2022-10-08T01:38:49.253Z,9.309256
2022-10-08T01:39:49.283Z,9.309203
2022-10-08T01:40:49.296Z,9.309013
2022-10-08T01:41:49.240Z,9.308919
2022-10-08T01:42:49.623Z,9.309081
2022-10-08T01:43:49.193Z,9.309031
2022-10-08T01:44:49.215Z,9.309006
2022-10-08T01:45:49.266Z,9.309044
2022-10-08T01:46:49.201Z,9.309062
2022-10-08T01:47:49.101Z,9.309018
2022-10-08T01:48:49.096Z,9.309076
2022-10-08T01:49:49.079Z,9.309294
2022-10-08T01:50:49.075Z,9.309326
2022-10-08T01:51:49.107Z,9.309218
2022-10-08T01:52:49.466Z,9.308973
2022-10-08T01:53:49.053Z,9.309002
2022-10-08T01:54:49.060Z,9.308985
2022-10-08T01:55:49.050Z,9.309033
2022-10-08T01:56:49.065Z,9.309138
2022-10-08T01:57:49.138Z,9.308972
2022-10-08T01:58:49.089Z,9.308892
2022-10-08T01:59:49.113Z,9.308783
2022-10-08T02:00:49.224Z,9.309012
2022-10-08T02:01:49.140Z,9.308849
2022-10-08T02:02:49.259Z,9.308975
2022-10-08T02:03:49.092Z,9.308835
2022-10-08T02:04:49.050Z,9.308849
2022-10-08T02:05:49.064Z,9.308656
2022-10-08T02:06:49.046Z,9.308834
2022-10-08T02:07:48.994Z,9.308826
2022-10-08T02:08:48.964Z,9.309012
2022-10-08T02:09:48.941Z,9.309046
2022-10-08T02:10:48.938Z,9.308912
2022-10-08T02:11:48.936Z,9.308941
2022-10-08T02:12:49.398Z,9.309204
2022-10-08T02:13:48.925Z,9.309242
2022-10-08T02:14:48.893Z,9.309059
2022-10-08T02:15:48.915Z,9.309206
2022-10-08T02:16:49.048Z,9.309167
2022-10-08T02:17:48.959Z,9.309061
2022-10-08T02:18:49.082Z,9.309201
2022-10-08T02:19:49.041Z,9.309197
2022-10-08T02:20:48.969Z,9.309288
2022-10-08T02:21:48.970Z,9.309219
2022-10-08T02:22:49.151Z,9.309144
2022-10-08T02:23:48.974Z,9.309126
2022-10-08T02:24:48.943Z,9.309151
2022-10-08T02:25:48.937Z,9.309099
2022-10-08T02:26:48.962Z,9.309146
2022-10-08T02:27:48.893Z,9.309146
2022-10-08T02:28:48.809Z,9.309159
2022-10-08T02:29:48.888Z,9.309160
2022-10-08T02:30:48.899Z,9.309107
2022-10-08T02:31:48.823Z,9.309097
2022-10-08T02:32:49.022Z,9.309201
2022-10-08T02:33:48.766Z,9.309197
2022-10-08T02:34:49.132Z,9.309155
2022-10-08T02:35:48.847Z,9.309094
2022-10-08T02:36:48.918Z,9.309162
2022-10-08T02:38:07.634Z,9.309164
2022-10-08T02:38:48.747Z,9.309204
2022-10-08T02:39:48.888Z,9.309168
2022-10-08T02:40:48.880Z,9.309105
2022-10-08T02:41:48.720Z,9.309067
2022-10-08T02:42:49.107Z,9.309038
2022-10-08T02:43:51.910Z,9.309091
2022-10-08T02:44:48.699Z,9.309114
2022-10-08T02:45:48.824Z,9.309111
2022-10-08T02:46:48.824Z,9.309102
2022-10-08T02:47:48.688Z,9.309190
2022-10-08T02:48:48.750Z,9.309195
2022-10-08T02:49:48.693Z,9.309150
2022-10-08T02:50:48.671Z,9.309127
2022-10-08T02:51:48.684Z,9.309158
2022-10-08T02:52:49.234Z,9.309099
2022-10-08T02:53:48.638Z,9.309195
2022-10-08T02:54:48.651Z,9.309059
2022-10-08T02:55:48.623Z,9.309088
2022-10-08T02:56:48.638Z,9.309068
2022-10-08T02:57:48.630Z,9.309135
2022-10-08T02:58:48.613Z,9.309125
2022-10-08T02:59:48.632Z,9.309098
2022-10-08T03:00:48.644Z,9.309030
2022-10-08T03:02:20.624Z,9.309086
2022-10-08T03:03:20.675Z,9.309157
2022-10-08T03:03:48.653Z,9.309053
2022-10-08T03:05:20.649Z,9.309061
2022-10-08T03:05:48.558Z,9.309032
2022-10-08T03:07:20.966Z,9.309028
2022-10-08T03:07:48.557Z,9.309040
2022-10-08T03:09:20.533Z,9.308999
2022-10-08T03:10:20.619Z,9.309069
2022-10-08T03:11:20.611Z,9.309037
2022-10-08T03:11:48.547Z,9.309061
2022-10-08T03:12:49.062Z,9.309007
2022-10-08T03:13:48.703Z,9.309088
2022-10-08T03:14:48.504Z,9.309073
2022-10-08T03:15:48.596Z,9.309033
2022-10-08T03:16:48.634Z,9.309112
2022-10-08T03:17:48.491Z,9.309086
2022-10-08T03:18:48.495Z,9.309031
2022-10-08T03:19:48.527Z,9.309055
2022-10-08T03:20:48.466Z,9.309090
2022-10-08T03:21:48.527Z,9.309105
2022-10-08T03:22:49.018Z,9.309028
2022-10-08T03:23:48.422Z,9.309118
2022-10-08T03:24:48.652Z,9.309118
2022-10-08T03:25:48.505Z,9.309025
2022-10-08T03:26:48.506Z,9.308981
2022-10-08T03:27:48.495Z,9.309050
2022-10-08T03:28:48.507Z,9.309087
2022-10-08T03:29:48.417Z,9.309080
2022-10-08T03:30:48.495Z,9.309101
2022-10-08T03:31:48.471Z,9.309104
2022-10-08T03:32:48.641Z,9.309122
2022-10-08T03:33:48.396Z,9.309135
2022-10-08T03:34:48.355Z,9.309147
2022-10-08T03:35:48.372Z,9.309105
2022-10-08T03:36:48.444Z,9.309060
2022-10-08T03:37:48.332Z,9.309033
2022-10-08T03:38:48.333Z,9.309125
2022-10-08T03:39:48.703Z,9.309108
2022-10-08T03:40:48.329Z,9.309133
2022-10-08T03:41:48.312Z,9.309098
2022-10-08T03:42:48.914Z,9.309091
2022-10-08T03:43:48.417Z,9.309097
2022-10-08T03:44:48.317Z,9.309102
2022-10-08T03:45:48.471Z,9.309091
2022-10-08T03:46:48.377Z,9.309067
2022-10-08T03:47:48.408Z,9.309090
2022-10-08T03:48:48.356Z,9.309105
2022-10-08T03:49:48.368Z,9.309106
2022-10-08T03:50:48.343Z,9.309123
2022-10-08T03:51:48.226Z,9.309122
2022-10-08T03:52:48.644Z,9.309055
2022-10-08T03:53:48.241Z,9.309116
2022-10-08T03:54:48.215Z,9.309185
2022-10-08T03:55:48.251Z,9.309137
2022-10-08T03:56:48.203Z,9.309041
2022-10-08T03:57:48.199Z,9.309072
2022-10-08T03:58:48.183Z,9.308971
2022-10-08T03:59:48.191Z,9.309121
2022-10-08T04:00:48.235Z,9.309052
2022-10-08T04:01:48.246Z,9.309006
2022-10-08T04:02:48.589Z,9.309057
2022-10-08T04:03:48.156Z,9.309109
2022-10-08T04:04:48.275Z,9.309107
2022-10-08T04:05:48.294Z,9.309167
2022-10-08T04:06:48.261Z,9.309119
2022-10-08T04:07:48.309Z,9.309056
2022-10-08T04:08:48.252Z,9.309092
2022-10-08T04:09:48.186Z,9.309069
2022-10-08T04:10:48.358Z,9.309071
2022-10-08T04:11:48.190Z,9.309069
2022-10-08T04:12:48.637Z,9.309158
2022-10-08T04:13:48.094Z,9.309162
2022-10-08T04:14:48.072Z,9.309199
2022-10-08T04:15:48.096Z,9.309120
2022-10-08T04:16:48.111Z,9.309090
2022-10-08T04:17:48.046Z,9.309055
2022-10-08T04:18:48.049Z,9.309083
2022-10-08T04:19:48.071Z,9.308928
2022-10-08T04:20:48.031Z,9.308979
2022-10-08T04:21:48.078Z,9.309078
2022-10-08T04:22:48.439Z,9.309076
2022-10-08T04:23:48.025Z,9.309155
2022-10-08T04:24:48.016Z,9.309188
2022-10-08T04:25:48.084Z,9.309119
2022-10-08T04:26:48.169Z,9.309092
2022-10-08T04:27:48.002Z,9.309128
2022-10-08T04:28:48.086Z,9.309184
2022-10-08T04:29:48.126Z,9.309113
2022-10-08T04:30:48.026Z,9.309126
2022-10-08T04:31:48.132Z,9.309033
2022-10-08T04:32:48.340Z,9.309082
2022-10-08T04:33:47.973Z,9.309122
2022-10-08T04:34:48.024Z,9.309093
2022-10-08T04:35:48.086Z,9.309015
2022-10-08T04:36:47.982Z,9.309114
2022-10-08T04:37:48.135Z,9.309126
2022-10-08T04:38:48.038Z,9.309111
2022-10-08T04:39:47.905Z,9.309063
2022-10-08T04:40:47.974Z,9.309134
2022-10-08T04:41:47.983Z,9.308968
2022-10-08T04:42:48.224Z,9.309038
2022-10-08T04:43:48.203Z,9.309060
2022-10-08T04:44:47.887Z,9.308976
2022-10-08T04:45:47.873Z,9.308993
2022-10-08T04:46:47.911Z,9.308935
2022-10-08T04:47:47.924Z,9.308867
2022-10-08T04:48:47.886Z,9.308944
2022-10-08T04:49:47.949Z,9.309071
2022-10-08T04:50:47.941Z,9.309071
2022-10-08T04:51:47.849Z,9.309102
2022-10-08T04:52:48.173Z,9.309055
2022-10-08T04:53:47.989Z,9.309029
2022-10-08T04:54:47.940Z,9.309054
2022-10-08T04:55:47.887Z,9.308973
2022-10-08T04:56:47.813Z,9.308955
2022-10-08T04:57:47.784Z,9.308974
2022-10-08T04:58:47.867Z,9.309114
2022-10-08T05:00:13.243Z,9.308928
2022-10-08T05:00:49.785Z,9.308943
2022-10-08T05:01:47.928Z,9.308977
2022-10-08T05:02:47.960Z,9.308965
2022-10-08T05:03:47.749Z,9.308990
2022-10-08T05:04:47.793Z,9.309080
2022-10-08T05:05:47.828Z,9.309110
2022-10-08T05:06:47.744Z,9.309034
2022-10-08T05:07:47.704Z,9.308940
2022-10-08T05:08:47.728Z,9.309019
2022-10-08T05:09:47.700Z,9.308998
2022-10-08T05:10:47.831Z,9.308866
2022-10-08T05:11:47.777Z,9.308907
2022-10-08T05:12:47.919Z,9.308834
2022-10-08T05:13:47.738Z,9.308861
2022-10-08T05:14:47.766Z,9.308896
2022-10-08T05:15:47.850Z,9.308972
2022-10-08T05:16:47.732Z,9.309067
2022-10-08T05:17:47.805Z,9.308969
2022-10-08T05:18:47.713Z,9.309032
2022-10-08T05:19:47.774Z,9.308972
2022-10-08T05:20:47.662Z,9.308975
2022-10-08T05:21:47.672Z,9.308947
2022-10-08T05:22:47.940Z,9.308949
2022-10-08T05:23:47.605Z,9.308909
2022-10-08T05:24:47.622Z,9.308865
2022-10-08T05:25:47.593Z,9.308924
2022-10-08T05:26:58.581Z,9.308953
2022-10-08T05:27:49.588Z,9.308995
2022-10-08T05:28:47.722Z,9.309051
2022-10-08T05:29:47.563Z,9.309082
2022-10-08T05:30:47.811Z,9.309032
2022-10-08T05:31:47.681Z,9.309014
2022-10-08T05:32:48.085Z,9.309006
2022-10-08T05:33:47.620Z,9.308942
2022-10-08T05:34:47.694Z,9.308991
2022-10-08T05:35:48.596Z,9.309080
2022-10-08T05:36:47.625Z,9.308982
2022-10-08T05:37:47.649Z,9.309019
2022-10-08T05:38:47.650Z,9.309034
2022-10-08T05:39:47.614Z,9.309006
2022-10-08T05:40:47.906Z,9.308975
2022-10-08T05:41:47.489Z,9.308928
2022-10-08T05:42:47.781Z,9.308950
2022-10-08T05:43:47.634Z,9.308986
2022-10-08T05:44:47.489Z,9.308977
2022-10-08T05:45:47.481Z,9.308913
2022-10-08T05:46:47.517Z,9.308999
2022-10-08T05:47:47.431Z,9.308951
2022-10-08T05:48:47.686Z,9.308888
2022-10-08T05:49:47.453Z,9.308986
2022-10-08T05:50:47.514Z,9.308955
2022-10-08T05:51:47.504Z,9.308881
2022-10-08T05:52:47.726Z,9.308910
2022-10-08T05:53:47.548Z,9.308971
2022-10-08T05:54:47.484Z,9.309047
2022-10-08T05:55:47.467Z,9.308973
2022-10-08T05:56:47.398Z,9.308824
2022-10-08T05:57:47.460Z,9.308899
2022-10-08T05:58:47.458Z,9.308874
2022-10-08T05:59:47.481Z,9.308856
2022-10-08T06:00:47.461Z,9.308980
2022-10-08T06:01:48.464Z,9.309003
2022-10-08T06:02:47.543Z,9.309006
2022-10-08T06:03:47.481Z,9.309005
2022-10-08T06:04:47.464Z,9.309060
2022-10-08T06:05:47.355Z,9.308969
2022-10-08T06:06:47.297Z,9.309013
2022-10-08T06:07:47.302Z,9.309023
2022-10-08T06:08:47.405Z,9.309049
2022-10-08T06:09:47.375Z,9.309003
2022-10-08T06:10:47.513Z,9.309019
2022-10-08T06:11:47.461Z,9.309013
2022-10-08T06:12:47.610Z,9.308956
2022-10-08T06:13:47.365Z,9.309041
2022-10-08T06:14:47.394Z,9.309050
2022-10-08T06:15:47.436Z,9.309064
2022-10-08T06:16:47.322Z,9.309019
2022-10-08T06:17:47.332Z,9.309020
2022-10-08T06:18:47.337Z,9.308964
2022-10-08T06:19:47.314Z,9.308970
2022-10-08T06:20:47.318Z,9.309078
2022-10-08T06:21:47.279Z,9.309038
2022-10-08T06:22:47.471Z,9.309012
2022-10-08T06:23:47.280Z,9.309046
2022-10-08T06:24:47.186Z,9.309040
2022-10-08T06:25:47.215Z,9.309116
2022-10-08T06:26:47.320Z,9.309144
2022-10-08T06:27:47.354Z,9.309108
2022-10-08T06:28:47.223Z,9.309072
2022-10-08T06:29:47.334Z,9.309069
2022-10-08T06:30:47.166Z,9.309034
2022-10-08T06:31:47.252Z,9.309043
2022-10-08T06:32:47.394Z,9.309041
2022-10-08T06:33:47.224Z,9.308979
2022-10-08T06:34:47.139Z,9.309053
2022-10-08T06:35:47.230Z,9.309083
2022-10-08T06:36:47.217Z,9.309122
2022-10-08T06:37:47.146Z,9.309155
2022-10-08T06:38:47.169Z,9.309118
2022-10-08T06:39:48.512Z,9.309097
2022-10-08T06:40:48.119Z,9.309130
2022-10-08T06:41:47.157Z,9.309098
2022-10-08T06:42:47.353Z,9.309119
2022-10-08T06:43:47.088Z,9.309105
2022-10-08T06:44:47.154Z,9.309147
2022-10-08T06:45:47.120Z,9.309148
2022-10-08T06:46:47.107Z,9.309066
2022-10-08T06:47:47.159Z,9.309092
2022-10-08T06:48:47.367Z,9.309084
2022-10-08T06:49:47.063Z,9.309011
2022-10-08T06:50:46.997Z,9.309088
2022-10-08T06:51:47.089Z,9.309168
2022-10-08T06:52:47.151Z,9.309073
2022-10-08T06:53:47.142Z,9.309117
2022-10-08T06:54:47.112Z,9.309169
2022-10-08T06:55:47.051Z,9.309054
2022-10-08T06:56:47.058Z,9.309006
2022-10-08T06:57:47.143Z,9.309019
2022-10-08T06:58:46.984Z,9.309093
2022-10-08T06:59:47.091Z,9.308989
2022-10-08T07:00:47.096Z,9.309022
2022-10-08T07:01:47.005Z,9.309000
2022-10-08T07:02:47.283Z,9.308970
2022-10-08T07:03:47.022Z,9.309037
2022-10-08T07:04:46.949Z,9.309061
2022-10-08T07:05:46.953Z,9.309084
2022-10-08T07:06:46.897Z,9.309084
2022-10-08T07:07:46.882Z,9.309150
2022-10-08T07:08:46.881Z,9.309104
2022-10-08T07:09:46.949Z,9.309112
2022-10-08T07:10:46.917Z,9.309065
2022-10-08T07:11:46.971Z,9.309049
2022-10-08T07:12:47.304Z,9.309085
2022-10-08T07:13:46.900Z,9.308973
2022-10-08T07:14:47.023Z,9.309093
2022-10-08T07:15:46.963Z,9.309017
2022-10-08T07:16:47.920Z,9.309030
2022-10-08T07:17:46.897Z,9.309055
2022-10-08T07:18:46.894Z,9.309124
2022-10-08T07:19:46.836Z,9.309114
2022-10-08T07:20:46.874Z,9.309093
2022-10-08T07:21:46.903Z,9.309076
2022-10-08T07:22:46.982Z,9.309094
2022-10-08T07:23:46.801Z,9.309141
2022-10-08T07:24:46.875Z,9.309081
2022-10-08T07:25:46.862Z,9.309000
2022-10-08T07:26:46.913Z,9.309033
2022-10-08T07:27:46.835Z,9.309076
2022-10-08T07:28:46.870Z,9.309149
2022-10-08T07:29:46.821Z,9.309115
2022-10-08T07:30:46.843Z,9.309133
2022-10-08T07:31:46.929Z,9.309148
2022-10-08T07:32:47.028Z,9.309118
2022-10-08T07:33:46.810Z,9.309082
2022-10-08T07:34:46.767Z,9.309081
2022-10-08T07:35:46.837Z,9.309072
2022-10-08T07:36:46.770Z,9.309072
2022-10-08T07:37:46.786Z,9.309018
2022-10-08T07:38:46.730Z,9.309031
2022-10-08T07:39:46.662Z,9.308998
2022-10-08T07:40:46.785Z,9.308915
2022-10-08T07:41:46.669Z,9.308992
2022-10-08T07:42:46.972Z,9.309021
2022-10-08T07:43:47.389Z,9.309006
2022-10-08T07:44:46.700Z,9.309015
2022-10-08T07:45:46.764Z,9.309072
2022-10-08T07:46:46.720Z,9.309096
2022-10-08T07:47:46.718Z,9.309040
2022-10-08T07:48:46.737Z,9.308958
2022-10-08T07:49:46.718Z,9.308986
2022-10-08T07:50:46.732Z,9.309025
2022-10-08T07:51:46.662Z,9.309005
2022-10-08T07:52:46.903Z,9.308978
2022-10-08T07:53:46.597Z,9.309007
2022-10-08T07:54:46.801Z,9.308994
2022-10-08T07:55:46.528Z,9.309044
2022-10-08T07:56:46.577Z,9.309041
2022-10-08T07:57:46.561Z,9.309081
2022-10-08T07:58:46.647Z,9.309085
2022-10-08T07:59:46.557Z,9.309124
2022-10-08T08:00:46.712Z,9.309135
2022-10-08T08:01:46.619Z,9.309153
2022-10-08T08:02:46.839Z,9.309115
2022-10-08T08:03:46.566Z,9.309094
2022-10-08T08:04:46.602Z,9.309086
2022-10-08T08:05:46.574Z,9.309124
2022-10-08T08:06:46.552Z,9.309134
2022-10-08T08:07:51.004Z,9.309085
2022-10-08T08:08:48.535Z,9.309121
2022-10-08T08:09:46.535Z,9.309105
2022-10-08T08:10:46.462Z,9.309110
2022-10-08T08:11:46.443Z,9.309143
2022-10-08T08:12:46.734Z,9.309150
2022-10-08T08:13:46.437Z,9.309084
2022-10-08T08:14:46.397Z,9.309122
2022-10-08T08:15:46.440Z,9.309144
2022-10-08T08:16:46.529Z,9.309185
2022-10-08T08:17:46.385Z,9.309173
2022-10-08T08:18:46.391Z,9.309148
2022-10-08T08:19:46.490Z,9.309134
2022-10-08T08:20:46.497Z,9.309188
2022-10-08T08:21:46.510Z,9.309204
2022-10-08T08:22:46.724Z,9.309152
2022-10-08T08:23:46.430Z,9.309143
2022-10-08T08:24:46.437Z,9.309095
2022-10-08T08:25:46.438Z,9.309141
2022-10-08T08:26:46.441Z,9.309139
2022-10-08T08:27:46.386Z,9.309174
2022-10-08T08:28:46.536Z,9.309134
2022-10-08T08:29:46.414Z,9.309125
2022-10-08T08:30:46.374Z,9.309068
2022-10-08T08:31:47.490Z,9.309123
2022-10-08T08:32:46.538Z,9.309139
2022-10-08T08:33:46.285Z,9.309163
2022-10-08T08:34:46.350Z,9.309142
2022-10-08T08:35:46.249Z,9.309133
2022-10-08T08:36:46.336Z,9.309151
2022-10-08T08:37:46.554Z,9.309172
2022-10-08T08:38:46.334Z,9.309129
2022-10-08T08:39:46.318Z,9.309100
2022-10-08T08:40:46.354Z,9.309089
2022-10-08T08:41:46.338Z,9.309093
2022-10-08T08:42:46.642Z,9.309054
2022-10-08T08:43:47.303Z,9.309196
2022-10-08T08:44:46.360Z,9.309056
2022-10-08T08:45:47.444Z,9.309058
2022-10-08T08:46:47.342Z,9.309127
2022-10-08T08:47:46.176Z,9.309096
2022-10-08T08:48:46.217Z,9.309114
2022-10-08T08:49:46.280Z,9.309088
2022-10-08T08:50:48.754Z,9.309103
2022-10-08T08:51:47.417Z,9.309155
2022-10-08T08:52:46.592Z,9.309072
2022-10-08T08:53:46.339Z,9.309114
2022-10-08T08:54:46.299Z,9.309103
2022-10-08T08:55:46.248Z,9.309176
2022-10-08T08:56:46.222Z,9.309164
2022-10-08T08:57:46.222Z,9.309147
2022-10-08T08:59:18.527Z,9.309155
2022-10-08T08:59:46.096Z,9.309201
2022-10-08T09:01:18.225Z,9.309155
2022-10-08T09:02:19.473Z,9.309136
2022-10-08T09:02:46.336Z,9.309175
2022-10-08T09:03:47.216Z,9.309112
2022-10-08T09:04:46.089Z,9.309072
2022-10-08T09:05:46.109Z,9.309111
2022-10-08T09:06:46.038Z,9.309136
2022-10-08T09:07:46.184Z,9.309165
2022-10-08T09:08:46.059Z,9.309097
2022-10-08T09:09:46.049Z,9.309114
2022-10-08T09:10:46.101Z,9.309218
2022-10-08T09:11:46.125Z,9.309155
2022-10-08T09:12:46.549Z,9.309109
2022-10-08T09:13:46.121Z,9.309159
2022-10-08T09:14:46.100Z,9.309161
2022-10-08T09:15:46.071Z,9.309161
2022-10-08T09:16:46.164Z,9.309253
2022-10-08T09:17:46.116Z,9.309176
2022-10-08T09:18:46.053Z,9.309133
2022-10-08T09:19:46.180Z,9.309086
2022-10-08T09:20:45.995Z,9.309081
2022-10-08T09:21:45.940Z,9.309106
2022-10-08T09:22:46.429Z,9.309135
2022-10-08T09:23:45.939Z,9.309147
2022-10-08T09:24:45.923Z,9.309112
2022-10-08T09:25:45.982Z,9.309154
2022-10-08T09:26:45.893Z,9.309143
2022-10-08T09:27:45.888Z,9.309151
2022-10-08T09:28:46.127Z,9.309180
2022-10-08T09:29:45.985Z,9.309183
2022-10-08T09:30:46.151Z,9.309309
2022-10-08T09:31:45.982Z,9.309176
2022-10-08T09:32:46.224Z,9.309125
2022-10-08T09:33:46.030Z,9.309087
2022-10-08T09:34:45.991Z,9.309152
2022-10-08T09:35:45.947Z,9.309177
2022-10-08T09:36:45.975Z,9.309220
2022-10-08T09:37:45.917Z,9.309117
2022-10-08T09:38:45.820Z,9.309179
2022-10-08T09:39:45.803Z,9.309179
2022-10-08T09:40:45.901Z,9.309197
2022-10-08T09:41:45.954Z,9.309150
2022-10-08T09:42:46.118Z,9.309086
2022-10-08T09:43:45.884Z,9.309064
2022-10-08T09:44:45.865Z,9.309093
2022-10-08T09:45:45.901Z,9.309145
2022-10-08T09:46:45.897Z,9.309033
2022-10-08T09:47:45.907Z,9.309114
2022-10-08T09:48:45.861Z,9.309072
2022-10-08T09:49:45.876Z,9.309145
2022-10-08T09:50:45.956Z,9.309123
2022-10-08T09:51:45.871Z,9.309122
2022-10-08T09:52:46.142Z,9.309176
2022-10-08T09:53:45.745Z,9.309084
2022-10-08T09:54:45.699Z,9.309089
2022-10-08T09:55:45.808Z,9.309070
2022-10-08T09:56:45.686Z,9.309072
2022-10-08T09:57:45.668Z,9.309089
2022-10-08T09:58:45.713Z,9.309039
2022-10-08T09:59:45.804Z,9.309094
2022-10-08T10:00:45.733Z,9.309093
2022-10-08T10:01:45.814Z,9.309027
2022-10-08T10:02:45.918Z,9.309022
2022-10-08T10:03:46.127Z,9.309153
2022-10-08T10:04:45.721Z,9.309146
2022-10-08T10:05:46.467Z,9.309156
2022-10-08T10:06:45.712Z,9.309079
2022-10-08T10:07:45.746Z,9.309065
2022-10-08T10:08:45.813Z,9.309072
2022-10-08T10:09:45.816Z,9.309097
2022-10-08T10:10:45.673Z,9.309101
2022-10-08T10:11:45.737Z,9.309103
2022-10-08T10:12:46.040Z,9.309056
2022-10-08T10:13:45.643Z,9.309116
2022-10-08T10:14:45.668Z,9.309177
2022-10-08T10:15:45.723Z,9.309130
2022-10-08T10:16:45.646Z,9.309157
2022-10-08T10:17:45.578Z,9.309220
2022-10-08T10:18:46.556Z,9.309237
2022-10-08T10:19:45.580Z,9.309072
2022-10-08T10:20:45.691Z,9.309054
2022-10-08T10:21:45.779Z,9.309062
2022-10-08T10:22:45.961Z,9.309060
2022-10-08T10:23:45.615Z,9.309088
2022-10-08T10:24:45.616Z,9.309160
2022-10-08T10:25:46.652Z,9.309151
2022-10-08T10:26:45.648Z,9.309094
2022-10-08T10:27:45.625Z,9.309180
2022-10-08T10:28:45.625Z,9.309100
2022-10-08T10:29:45.591Z,9.309063
2022-10-08T10:30:45.666Z,9.309025
2022-10-08T10:31:45.597Z,9.309086
2022-10-08T10:32:45.894Z,9.309082
2022-10-08T10:33:45.603Z,9.309087
2022-10-08T10:34:45.587Z,9.309050
2022-10-08T10:35:45.600Z,9.309071
2022-10-08T10:36:46.511Z,9.309056
2022-10-08T10:37:45.591Z,9.309070
2022-10-08T10:38:45.511Z,9.309042
2022-10-08T10:39:45.618Z,9.309105
2022-10-08T10:40:45.576Z,9.309051
2022-10-08T10:41:45.456Z,9.309063
2022-10-08T10:42:45.734Z,9.309072
2022-10-08T10:43:45.355Z,9.309106
2022-10-08T10:44:45.370Z,9.309115
2022-10-08T10:45:46.003Z,9.309086
2022-10-08T10:46:45.320Z,9.309129
2022-10-08T10:47:45.456Z,9.309102
2022-10-08T10:48:45.416Z,9.309057
2022-10-08T10:49:45.407Z,9.309010
2022-10-08T10:50:45.389Z,9.309111
2022-10-08T10:51:45.478Z,9.309056
2022-10-08T10:52:45.852Z,9.309061
2022-10-08T10:53:45.305Z,9.309103
2022-10-08T10:54:45.384Z,9.309063
2022-10-08T10:55:45.376Z,9.309072
2022-10-08T10:56:45.308Z,9.309085
2022-10-08T10:57:45.356Z,9.309118
2022-10-08T10:58:45.441Z,9.309180
2022-10-08T10:59:45.347Z,9.309099
2022-10-08T11:00:45.394Z,9.309229
2022-10-08T11:01:45.393Z,9.309167
2022-10-08T11:02:45.610Z,9.309156
2022-10-08T11:03:45.614Z,9.309085
2022-10-08T11:04:45.213Z,9.309093
2022-10-08T11:05:45.216Z,9.309111
2022-10-08T11:06:45.188Z,9.309054
2022-10-08T11:07:45.199Z,9.309009
2022-10-08T11:08:45.210Z,9.308864
2022-10-08T11:09:45.222Z,9.308789
2022-10-08T11:10:45.202Z,9.308819
2022-10-08T11:11:45.245Z,9.308561
2022-10-08T11:12:45.533Z,9.308541
2022-10-08T11:13:45.232Z,9.308728
2022-10-08T11:14:45.263Z,9.308895
2022-10-08T11:15:45.290Z,9.309107
2022-10-08T11:16:45.240Z,9.309139
2022-10-08T11:17:45.235Z,9.309121
2022-10-08T11:18:45.250Z,9.309051
2022-10-08T11:19:45.222Z,9.309014
2022-10-08T11:20:45.637Z,9.309073
2022-10-08T11:21:45.167Z,9.309578
2022-10-08T11:22:46.462Z,9.309119
2022-10-08T11:23:45.075Z,9.308862
2022-10-08T11:24:45.104Z,9.308726
2022-10-08T11:26:11.116Z,9.308767
2022-10-08T11:26:47.047Z,9.308875
2022-10-08T11:27:45.058Z,9.309151
2022-10-08T11:28:45.119Z,9.309150
2022-10-08T11:29:45.077Z,9.309023
2022-10-08T11:30:45.096Z,9.308991
2022-10-08T11:31:45.211Z,9.309064
2022-10-08T11:32:45.568Z,9.308967
2022-10-08T11:33:45.159Z,9.309024
2022-10-08T11:34:45.073Z,9.308937
2022-10-08T11:35:45.185Z,9.308972
2022-10-08T11:36:45.124Z,9.308995
2022-10-08T11:37:46.065Z,9.308960
2022-10-08T11:38:45.960Z,9.308888
2022-10-08T11:39:45.054Z,9.308915
2022-10-08T11:40:45.088Z,9.309015
2022-10-08T11:41:44.957Z,9.309062
2022-10-08T11:42:48.284Z,9.309085
2022-10-08T11:43:45.934Z,9.309061
2022-10-08T11:44:45.140Z,9.309112